Time;durP1;ratioP1;P1;durP2;ratioP2;P2;SDS_P1;SDS_P2;PMS_P1;PMS_P2;Temp;Humidity;BMP_temperature;BMP_pressure;BME280_temperature;BME280_humidity;BME280_pressure;Samples;Min_cycle;Max_cycle;Signal;HPM_P1;HPM_P2
2021/11/03 00:01:50;;;;;;;23.50;16.52;;;6.20;79.50;;;;;;4972356;28;20530;-83
2021/11/03 00:04:18;;;;;;;25.60;16.85;;;6.20;79.50;;;;;;4967901;28;20386;-82
2021/11/03 00:06:45;;;;;;;23.55;16.23;;;6.20;79.50;;;;;;4969488;28;20054;-82
2021/11/03 00:09:12;;;;;;;27.20;16.25;;;6.20;79.50;;;;;;4970759;28;20222;-83
2021/11/03 00:11:39;;;;;;;24.27;15.77;;;6.20;79.50;;;;;;4969811;28;20050;-83
2021/11/03 00:14:06;;;;;;;22.65;15.13;;;6.20;79.50;;;;;;4972087;28;20459;-83
2021/11/03 00:16:34;;;;;;;24.83;16.20;;;6.10;79.50;;;;;;4967994;28;20082;-82
2021/11/03 00:19:01;;;;;;;21.00;14.50;;;6.10;79.50;;;;;;4967868;28;20058;-82
2021/11/03 00:21:27;;;;;;;25.20;15.43;;;6.10;79.50;;;;;;4971805;28;20047;-83
2021/11/03 00:23:55;;;;;;;26.02;15.23;;;6.10;79.40;;;;;;4969931;28;20554;-82
2021/11/03 00:26:22;;;;;;;22.80;15.50;;;6.10;79.40;;;;;;4966286;28;20054;-83
2021/11/03 00:28:49;;;;;;;20.55;14.60;;;6.10;79.40;;;;;;4967456;28;20464;-83
2021/11/03 00:31:16;;;;;;;19.45;14.32;;;6.10;79.40;;;;;;4967547;28;20050;-83
2021/11/03 00:33:43;;;;;;;24.02;15.27;;;6.10;79.40;;;;;;4969783;28;20050;-82
2021/11/03 00:36:10;;;;;;;22.20;14.50;;;6.00;79.40;;;;;;4970116;28;20432;-82
2021/11/03 00:38:37;;;;;;;21.23;14.85;;;6.00;79.40;;;;;;4954234;28;20178;-83
2021/11/03 00:41:05;;;;;;;19.88;14.05;;;6.00;79.40;;;;;;4963553;28;20137;-82
2021/11/03 00:43:32;;;;;;;20.70;14.60;;;6.00;79.40;;;;;;4967238;28;20043;-83
2021/11/03 00:45:59;;;;;;;20.00;13.07;;;6.00;79.40;;;;;;4967059;28;20106;-82
2021/11/03 00:48:26;;;;;;;18.65;13.88;;;6.00;79.40;;;;;;4956016;28;20089;-83
2021/11/03 00:50:52;;;;;;;21.67;14.43;;;6.00;79.40;;;;;;4969046;28;20404;-82
2021/11/03 00:53:19;;;;;;;19.98;13.70;;;6.00;79.40;;;;;;4970743;28;20239;-82
2021/11/03 00:55:47;;;;;;;20.92;14.50;;;6.00;79.40;;;;;;4967135;28;20455;-83
2021/11/03 00:58:14;;;;;;;18.38;14.27;;;5.90;79.40;;;;;;4967027;28;20047;-83
2021/11/03 01:00:41;;;;;;;24.55;15.43;;;5.90;79.40;;;;;;4969660;28;20058;-82
2021/11/03 01:03:09;;;;;;;20.80;14.77;;;5.90;79.40;;;;;;4969361;28;20120;-82
2021/11/03 01:05:38;;;;;;;21.80;16.13;;;5.90;79.40;;;;;;4968613;28;20519;-83
2021/11/03 01:08:07;;;;;;;22.00;15.32;;;5.90;79.40;;;;;;4966619;28;20051;-83
2021/11/03 01:10:34;;;;;;;21.63;14.18;;;5.90;79.40;;;;;;4966971;28;20054;-82
2021/11/03 01:13:01;;;;;;;19.25;14.27;;;5.90;79.40;;;;;;4966778;28;20102;-82
2021/11/03 01:15:28;;;;;;;19.65;14.38;;;5.90;79.40;;;;;;4971001;28;20044;-82
2021/11/03 01:17:56;;;;;;;24.23;14.18;;;5.90;79.40;;;;;;4968854;28;20050;-83
2021/11/03 01:20:25;;;;;;;18.55;14.32;;;5.90;79.40;;;;;;4966482;28;20043;-83
2021/11/03 01:22:53;;;;;;;21.40;13.82;;;5.90;79.40;;;;;;4970782;28;20046;-82
2021/11/03 01:25:22;;;;;;;19.27;14.52;;;5.90;79.40;;;;;;4966369;28;20051;-82
2021/11/03 01:27:49;;;;;;;18.55;13.88;;;5.80;79.40;;;;;;4968114;28;20043;-83
2021/11/03 01:30:19;;;;;;;19.00;14.38;;;5.90;79.40;;;;;;4969761;28;20058;-82
2021/11/03 01:32:46;;;;;;;24.05;14.82;;;5.80;79.40;;;;;;4967816;28;20055;-82
2021/11/03 01:35:15;;;;;;;22.73;14.32;;;5.80;79.50;;;;;;4965004;28;20055;-82
2021/11/03 01:37:42;;;;;;;17.95;13.43;;;5.80;79.50;;;;;;4966337;28;20101;-83
2021/11/03 01:40:12;;;;;;;19.98;14.05;;;5.80;79.50;;;;;;4969333;28;20050;-82
2021/11/03 01:42:40;;;;;;;18.20;13.50;;;5.80;79.50;;;;;;4953897;28;20069;-83
2021/11/03 01:45:10;;;;;;;21.38;13.85;;;5.80;79.40;;;;;;4968631;28;20054;-82
2021/11/03 01:47:40;;;;;;;20.13;13.98;;;5.70;79.40;;;;;;4952813;28;20066;-82
2021/11/03 01:50:21;;;;;;;20.40;14.13;;;5.80;79.50;;;;;;4962651;28;20050;-82
2021/11/03 01:52:57;;;;;;;17.50;13.25;;;5.80;79.50;;;;;;4966138;28;20057;-82
2021/11/03 01:55:25;;;;;;;20.77;13.70;;;5.80;79.50;;;;;;4966121;28;20043;-83
2021/11/03 01:58:00;;;;;;;17.58;13.98;;;5.70;79.40;;;;;;4967236;28;20105;-83
2021/11/03 02:00:30;;;;;;;22.30;13.85;;;5.70;79.40;;;;;;4955464;28;20468;-82
2021/11/03 02:03:05;;;;;;;17.95;12.60;;;5.70;79.50;;;;;;4967776;28;20051;-82
2021/11/03 02:05:32;;;;;;;17.20;12.98;;;5.70;79.50;;;;;;4967221;28;20070;-83
2021/11/03 02:08:01;;;;;;;17.23;12.25;;;5.70;79.50;;;;;;4966085;28;20061;-83
2021/11/03 02:10:29;;;;;;;17.40;12.85;;;5.70;79.50;;;;;;4966064;28;20047;-82
2021/11/03 02:12:57;;;;;;;15.25;12.27;;;5.70;79.50;;;;;;4964728;28;20054;-82
2021/11/03 02:15:24;;;;;;;15.15;11.60;;;5.70;79.60;;;;;;4952840;28;20047;-82
2021/11/03 02:17:51;;;;;;;15.45;12.05;;;5.70;79.60;;;;;;4967674;28;20416;-83
2021/11/03 02:20:22;;;;;;;15.90;12.30;;;5.60;79.60;;;;;;4965927;28;20053;-82
2021/11/03 02:22:56;;;;;;;14.05;11.57;;;5.70;79.70;;;;;;4965925;28;20070;-83
2021/11/03 02:25:28;;;;;;;14.30;11.55;;;5.60;79.70;;;;;;4965635;28;20051;-83
2021/11/03 02:27:57;;;;;;;15.95;12.00;;;5.70;79.70;;;;;;4966656;28;20047;-83
2021/11/03 02:30:26;;;;;;;15.30;12.23;;;5.70;79.80;;;;;;4954415;28;20043;-83
2021/11/03 02:33:00;;;;;;;15.27;11.88;;;5.70;79.80;;;;;;4967700;28;20388;-83
2021/11/03 02:35:28;;;;;;;16.27;11.65;;;5.70;79.80;;;;;;4964292;28;20109;-82
2021/11/03 02:37:57;;;;;;;14.88;11.85;;;5.60;79.80;;;;;;4965613;28;20483;-83
2021/11/03 02:40:32;;;;;;;15.95;12.00;;;5.70;79.80;;;;;;4965658;28;20051;-83
2021/11/03 02:43:10;;;;;;;14.90;11.27;;;5.60;79.80;;;;;;4965485;28;20102;-83
2021/11/03 02:45:43;;;;;;;15.20;11.82;;;5.60;79.80;;;;;;4968189;28;20122;-83
2021/11/03 02:48:11;;;;;;;13.85;11.90;;;5.60;79.90;;;;;;4968727;28;20496;-83
2021/11/03 02:51:00;;;;;;;14.63;11.52;;;5.60;79.90;;;;;;4955515;28;20051;-82
2021/11/03 02:53:28;;;;;;;18.63;11.93;;;5.60;79.90;;;;;;4964747;28;20250;-83
2021/11/03 02:55:55;;;;;;;13.75;11.85;;;5.60;79.90;;;;;;4965635;28;20051;-83
2021/11/03 02:58:22;;;;;;;14.48;11.57;;;5.60;79.90;;;;;;4965557;28;20055;-82
2021/11/03 03:00:52;;;;;;;14.73;11.68;;;5.60;79.90;;;;;;4966531;28;20047;-83
2021/11/03 03:03:19;;;;;;;13.75;11.35;;;5.60;79.90;;;;;;4969108;28;20142;-83
2021/11/03 03:06:05;;;;;;;14.95;11.35;;;5.60;79.90;;;;;;4967299;28;20057;-83
2021/11/03 03:08:33;;;;;;;13.30;10.57;;;5.50;79.90;;;;;;4966966;28;20130;-83
2021/11/03 03:11:03;;;;;;;12.77;10.75;;;5.60;79.90;;;;;;4965456;28;20073;-83
2021/11/03 03:13:32;;;;;;;13.90;11.60;;;5.60;79.90;;;;;;4964962;28;20519;-83
2021/11/03 03:16:00;;;;;;;14.43;10.93;;;5.60;79.90;;;;;;4966199;28;20509;-83
2021/11/03 03:18:26;;;;;;;14.70;11.48;;;5.60;79.90;;;;;;4973358;28;20150;-82
2021/11/03 03:20:53;;;;;;;13.73;11.43;;;5.50;79.90;;;;;;4971127;28;20471;-83
2021/11/03 03:23:38;;;;;;;14.32;11.43;;;5.50;79.90;;;;;;4955664;28;20061;-82
2021/11/03 03:26:06;;;;;;;14.27;11.57;;;5.60;79.90;;;;;;4965061;28;20051;-82
2021/11/03 03:28:34;;;;;;;16.98;11.88;;;5.50;79.90;;;;;;4968448;28;20055;-83
2021/11/03 03:31:00;;;;;;;14.52;11.75;;;5.50;79.90;;;;;;4967234;28;20121;-83
2021/11/03 03:33:28;;;;;;;13.52;11.95;;;5.50;79.90;;;;;;4972710;28;20044;-83
2021/11/03 03:35:55;;;;;;;15.80;11.88;;;5.50;79.90;;;;;;4971022;28;20046;-82
2021/11/03 03:38:22;;;;;;;14.70;11.63;;;5.50;79.90;;;;;;4968777;28;20062;-83
2021/11/03 03:40:49;;;;;;;14.93;11.75;;;5.50;79.90;;;;;;4968512;28;20097;-83
2021/11/03 03:43:16;;;;;;;14.63;11.82;;;5.50;80.00;;;;;;4967853;28;20055;-82
2021/11/03 03:45:43;;;;;;;14.52;11.43;;;5.50;80.00;;;;;;4970605;28;20062;-82
2021/11/03 03:48:10;;;;;;;15.10;11.90;;;5.50;80.00;;;;;;4971188;28;20136;-83
2021/11/03 03:50:37;;;;;;;14.80;11.50;;;5.50;80.10;;;;;;4958317;28;20120;-83
2021/11/03 03:53:05;;;;;;;17.30;12.15;;;5.50;80.10;;;;;;4966015;28;20058;-82
2021/11/03 03:55:32;;;;;;;14.38;11.82;;;5.50;80.10;;;;;;4968145;28;20279;-83
2021/11/03 03:57:59;;;;;;;16.25;12.95;;;5.50;80.20;;;;;;4968020;28;20046;-83
2021/11/03 04:00:27;;;;;;;17.40;12.93;;;5.50;80.20;;;;;;4972373;28;20121;-83
2021/11/03 04:02:54;;;;;;;16.15;12.48;;;5.50;80.30;;;;;;4970317;28;20058;-83
2021/11/03 04:05:22;;;;;;;16.88;13.32;;;5.50;80.30;;;;;;4966812;28;20043;-82
2021/11/03 04:07:50;;;;;;;18.25;13.02;;;5.50;80.30;;;;;;4968342;28;20050;-82
2021/11/03 04:10:19;;;;;;;16.77;12.82;;;5.50;80.30;;;;;;4966500;28;20043;-82
2021/11/03 04:12:46;;;;;;;15.85;12.88;;;5.50;80.40;;;;;;4969375;28;20046;-82
2021/11/03 04:15:15;;;;;;;20.35;13.48;;;5.50;80.40;;;;;;4970973;28;20431;-82
2021/11/03 04:17:42;;;;;;;17.20;12.85;;;5.60;80.40;;;;;;4969666;28;20082;-83
2021/11/03 04:20:11;;;;;;;16.90;12.75;;;5.50;80.50;;;;;;4967831;28;20101;-82
2021/11/03 04:22:39;;;;;;;20.17;14.90;;;5.60;80.50;;;;;;4967545;28;20054;-82
2021/11/03 04:25:08;;;;;;;19.25;14.55;;;5.60;80.50;;;;;;4967990;28;20047;-82
2021/11/03 04:27:35;;;;;;;20.70;15.43;;;5.60;80.60;;;;;;4969577;28;20051;-83
2021/11/03 04:30:03;;;;;;;21.42;15.48;;;5.60;80.60;;;;;;4970457;28;20110;-82
2021/11/03 04:32:30;;;;;;;20.30;16.60;;;5.60;80.60;;;;;;4968787;28;20129;-83
2021/11/03 04:34:57;;;;;;;17.92;14.85;;;5.60;80.70;;;;;;4967569;28;20054;-83
2021/11/03 04:37:24;;;;;;;23.33;16.38;;;5.60;80.70;;;;;;4967618;28;20098;-82
2021/11/03 04:39:51;;;;;;;20.08;15.82;;;5.60;80.80;;;;;;4968229;28;20051;-83
2021/11/03 04:42:18;;;;;;;20.75;14.77;;;5.70;80.80;;;;;;4970720;28;20047;-83
2021/11/03 04:44:45;;;;;;;22.08;15.57;;;5.70;80.80;;;;;;4968995;28;20055;-83
2021/11/03 04:47:12;;;;;;;22.20;16.88;;;5.70;80.80;;;;;;4967452;28;20051;-83
2021/11/03 04:49:39;;;;;;;23.42;16.95;;;5.70;80.80;;;;;;4965799;28;20079;-82
2021/11/03 04:52:07;;;;;;;24.33;17.15;;;5.70;80.90;;;;;;4967207;28;20464;-82
2021/11/03 04:54:34;;;;;;;21.42;15.63;;;5.70;80.90;;;;;;4970763;28;20042;-82
2021/11/03 04:57:01;;;;;;;21.90;16.80;;;5.70;80.90;;;;;;4969383;28;20054;-82
2021/11/03 04:59:28;;;;;;;20.90;16.55;;;5.80;81.00;;;;;;4953978;28;20125;-83
2021/11/03 05:01:55;;;;;;;22.20;16.70;;;5.80;81.00;;;;;;4963532;28;20094;-82
2021/11/03 05:04:22;;;;;;;22.83;17.45;;;5.80;81.00;;;;;;4967023;28;20046;-82
2021/11/03 05:06:49;;;;;;;22.38;16.88;;;5.80;81.00;;;;;;4968456;28;20527;-82
2021/11/03 05:09:17;;;;;;;25.40;19.33;;;5.80;81.00;;;;;;4970333;28;22383;-83
2021/11/03 05:11:45;;;;;;;22.45;18.35;;;5.80;81.00;;;;;;4968504;28;20054;-82
2021/11/03 05:14:11;;;;;;;25.52;18.67;;;5.80;81.10;;;;;;4966777;28;20082;-83
2021/11/03 05:16:39;;;;;;;24.00;17.50;;;5.80;81.10;;;;;;4966855;28;20046;-82
2021/11/03 05:19:06;;;;;;;23.88;17.67;;;5.80;81.10;;;;;;4966609;28;20318;-83
2021/11/03 05:21:34;;;;;;;25.85;18.25;;;5.80;81.10;;;;;;4970214;28;20051;-83
2021/11/03 05:24:00;;;;;;;24.42;18.38;;;5.80;81.10;;;;;;4968907;28;20531;-82
2021/11/03 05:26:27;;;;;;;24.50;18.77;;;5.90;81.10;;;;;;4967136;28;20050;-82
2021/11/03 05:28:56;;;;;;;23.02;17.38;;;5.90;81.20;;;;;;4965034;28;20047;-83
2021/11/03 05:31:23;;;;;;;23.52;17.27;;;5.90;81.20;;;;;;4966507;28;20050;-83
2021/11/03 05:33:53;;;;;;;23.80;17.70;;;5.90;81.20;;;;;;4967444;28;20075;-82
2021/11/03 05:36:23;;;;;;;25.35;18.90;;;5.90;81.20;;;;;;4970349;28;20046;-82
2021/11/03 05:38:50;;;;;;;24.00;18.45;;;5.90;81.20;;;;;;4967634;28;20062;-82
2021/11/03 05:41:19;;;;;;;23.65;18.88;;;5.90;81.20;;;;;;4966127;28;20570;-82
2021/11/03 05:43:45;;;;;;;24.10;17.98;;;5.90;81.20;;;;;;4966457;28;20055;-82
2021/11/03 05:46:15;;;;;;;24.67;18.65;;;5.90;81.30;;;;;;4966180;28;20102;-82
2021/11/03 05:48:45;;;;;;;23.63;18.58;;;5.90;81.30;;;;;;4968636;28;20077;-83
2021/11/03 05:51:13;;;;;;;22.88;18.75;;;5.90;81.30;;;;;;4969141;28;20136;-83
2021/11/03 05:53:41;;;;;;;23.75;18.40;;;5.80;81.30;;;;;;4967772;28;20419;-83
2021/11/03 05:56:09;;;;;;;23.73;19.30;;;5.90;81.30;;;;;;4966104;28;20050;-82
2021/11/03 05:58:36;;;;;;;26.02;19.73;;;5.80;81.30;;;;;;4966053;28;20050;-83
2021/11/03 06:01:04;;;;;;;25.13;19.48;;;5.90;81.30;;;;;;4966148;28;20047;-82
2021/11/03 06:03:32;;;;;;;22.50;18.75;;;5.80;81.40;;;;;;4969874;28;20047;-82
2021/11/03 06:05:59;;;;;;;23.50;19.10;;;5.90;81.40;;;;;;4968398;28;20443;-83
2021/11/03 06:08:27;;;;;;;23.40;18.70;;;5.90;81.40;;;;;;4964946;28;20261;-83
2021/11/03 06:10:55;;;;;;;24.70;20.00;;;5.90;81.50;;;;;;4966037;28;20333;-83
2021/11/03 06:13:22;;;;;;;23.35;19.50;;;5.80;81.50;;;;;;4965807;28;20042;-83
2021/11/03 06:15:49;;;;;;;25.40;20.27;;;5.80;81.50;;;;;;4967437;28;20059;-83
2021/11/03 06:18:16;;;;;;;25.85;19.98;;;5.80;81.50;;;;;;4968960;28;20110;-83
2021/11/03 06:20:43;;;;;;;26.00;21.15;;;5.80;81.50;;;;;;4967891;28;20166;-83
2021/11/03 06:23:10;;;;;;;24.35;20.20;;;5.90;81.50;;;;;;4965539;28;20511;-83
2021/11/03 06:25:37;;;;;;;26.05;19.00;;;5.80;81.50;;;;;;4965850;28;20503;-82
2021/11/03 06:28:04;;;;;;;28.20;20.52;;;5.90;81.50;;;;;;4965848;28;20074;-83
2021/11/03 06:30:34;;;;;;;25.33;19.63;;;5.90;81.50;;;;;;4969665;28;20054;-83
2021/11/03 06:33:01;;;;;;;28.35;21.13;;;5.90;81.50;;;;;;4968274;28;20129;-83
2021/11/03 06:35:29;;;;;;;26.48;20.20;;;5.90;81.50;;;;;;4952472;28;20062;-83
2021/11/03 06:37:56;;;;;;;24.65;19.20;;;5.90;81.60;;;;;;4961995;28;20053;-82
2021/11/03 06:40:25;;;;;;;30.35;22.00;;;5.90;81.60;;;;;;4965833;28;20050;-83
2021/11/03 06:42:53;;;;;;;28.65;20.95;;;5.90;81.60;;;;;;4970032;28;20053;-83
2021/11/03 06:45:21;;;;;;;26.10;20.50;;;5.90;81.60;;;;;;4953820;28;20055;-82
2021/11/03 06:47:49;;;;;;;27.38;21.60;;;5.90;81.60;;;;;;4967066;28;20059;-82
2021/11/03 06:50:23;;;;;;;27.83;22.02;;;5.90;81.60;;;;;;4965730;28;20051;-82
2021/11/03 06:52:52;;;;;;;30.48;21.10;;;5.80;81.60;;;;;;4968856;28;20051;-82
2021/11/03 06:55:19;;;;;;;29.08;20.85;;;5.90;81.70;;;;;;4969479;28;20058;-82
2021/11/03 06:57:48;;;;;;;29.23;20.58;;;5.90;81.70;;;;;;4970948;28;20050;-83
2021/11/03 07:00:23;;;;;;;25.35;20.60;;;5.90;81.70;;;;;;4972562;28;20508;-83
2021/11/03 07:02:50;;;;;;;28.05;20.58;;;5.80;81.70;;;;;;4969816;28;20058;-83
2021/11/03 07:05:17;;;;;;;27.10;20.42;;;5.90;81.70;;;;;;4969066;28;20047;-82
2021/11/03 07:07:48;;;;;;;25.50;19.75;;;5.90;81.80;;;;;;4969154;28;20065;-82
2021/11/03 07:10:22;;;;;;;27.55;20.38;;;5.80;81.80;;;;;;4971179;28;20321;-82
2021/11/03 07:12:49;;;;;;;27.75;20.50;;;5.90;81.80;;;;;;4961038;28;20050;-83
2021/11/03 07:15:16;;;;;;;25.50;20.38;;;5.80;81.80;;;;;;4957719;28;20606;-83
2021/11/03 07:17:44;;;;;;;25.50;20.30;;;5.80;81.80;;;;;;4969779;28;20047;-83
2021/11/03 07:20:11;;;;;;;25.35;20.55;;;5.80;81.80;;;;;;4965661;28;20598;-83
2021/11/03 07:22:38;;;;;;;23.55;19.70;;;5.80;81.80;;;;;;4966219;28;20046;-83
2021/11/03 07:25:07;;;;;;;25.42;20.65;;;5.80;81.80;;;;;;4967961;28;20113;-83
2021/11/03 07:27:34;;;;;;;25.48;19.88;;;5.80;81.80;;;;;;4981019;28;20105;-83
2021/11/03 07:30:01;;;;;;;24.70;19.33;;;5.70;81.80;;;;;;4967057;28;20059;-82
2021/11/03 07:32:28;;;;;;;22.30;19.30;;;5.80;81.80;;;;;;4962424;28;20054;-83
2021/11/03 07:34:55;;;;;;;24.05;20.40;;;5.70;81.70;;;;;;4960578;28;20467;-83
2021/11/03 07:37:22;;;;;;;24.20;19.27;;;5.70;81.80;;;;;;4960365;28;20090;-82
2021/11/03 07:39:48;;;;;;;23.23;19.48;;;5.80;81.80;;;;;;4959458;28;20408;-83
2021/11/03 07:42:15;;;;;;;23.23;19.10;;;5.70;81.80;;;;;;4964100;28;20075;-82
2021/11/03 07:44:43;;;;;;;24.38;19.77;;;5.70;81.80;;;;;;4960360;28;20471;-83
2021/11/03 07:47:10;;;;;;;22.98;19.33;;;5.70;81.80;;;;;;4960588;28;20055;-83
2021/11/03 07:49:37;;;;;;;21.40;18.90;;;5.70;81.80;;;;;;4964010;28;20043;-83
2021/11/03 07:52:05;;;;;;;22.35;19.10;;;5.70;81.90;;;;;;4969580;28;20055;-82
2021/11/03 07:54:32;;;;;;;24.77;19.08;;;5.70;81.90;;;;;;4974719;28;20090;-83
2021/11/03 07:56:59;;;;;;;22.65;18.88;;;5.70;81.90;;;;;;4977450;28;20054;-82
2021/11/03 07:59:26;;;;;;;23.67;19.73;;;5.70;81.90;;;;;;4963486;28;20047;-83
2021/11/03 08:01:54;;;;;;;24.52;21.83;;;5.70;82.00;;;;;;4962258;28;20063;-82
2021/11/03 08:04:21;;;;;;;26.92;22.00;;;5.70;82.00;;;;;;4961579;28;20047;-82
2021/11/03 08:06:48;;;;;;;25.10;21.13;;;5.70;82.00;;;;;;4971297;28;20054;-83
2021/11/03 08:09:15;;;;;;;24.25;20.98;;;5.70;82.00;;;;;;4987941;28;20042;-82
2021/11/03 08:11:54;;;;;;;23.63;20.00;;;5.70;82.00;;;;;;4961214;28;20055;-83
2021/11/03 08:14:25;;;;;;;31.15;23.73;;;5.70;82.10;;;;;;4959882;28;20062;-82
2021/11/03 08:17:15;;;;;;;26.38;22.73;;;5.70;82.10;;;;;;4966420;28;20047;-82
2021/11/03 08:19:50;;;;;;;26.17;21.90;;;5.70;82.10;;;;;;4961814;28;20058;-82
2021/11/03 08:22:24;;;;;;;26.05;21.67;;;5.70;82.20;;;;;;4959738;28;20051;-82
2021/11/03 08:24:52;;;;;;;26.25;21.30;;;5.70;82.20;;;;;;4973248;28;20039;-82
2021/11/03 08:27:22;;;;;;;25.10;20.67;;;5.80;82.30;;;;;;4956433;28;20819;-82
2021/11/03 08:29:50;;;;;;;26.65;21.40;;;5.80;82.40;;;;;;4959626;28;20058;-82
2021/11/03 08:32:27;;;;;;;24.52;21.67;;;5.80;82.40;;;;;;4958773;28;20055;-82
2021/11/03 08:34:55;;;;;;;28.13;23.55;;;5.90;82.40;;;;;;4959695;28;20059;-82
2021/11/03 08:37:30;;;;;;;25.30;21.48;;;5.90;82.40;;;;;;4959579;28;20044;-82
2021/11/03 08:39:58;;;;;;;27.27;22.30;;;5.90;82.50;;;;;;4957952;28;20050;-82
2021/11/03 08:42:26;;;;;;;26.38;22.65;;;5.90;82.50;;;;;;4955445;28;20042;-82
2021/11/03 08:44:54;;;;;;;32.03;24.50;;;5.90;82.50;;;;;;4970316;28;20484;-82
2021/11/03 08:47:21;;;;;;;32.38;25.38;;;5.90;82.60;;;;;;4958869;28;20055;-82
2021/11/03 08:49:49;;;;;;;35.95;24.08;;;6.00;82.60;;;;;;4959437;28;20130;-82
2021/11/03 08:52:18;;;;;;;29.52;23.52;;;6.00;82.60;;;;;;4959166;28;20054;-82
2021/11/03 08:54:45;;;;;;;30.55;23.75;;;6.00;82.70;;;;;;4967772;28;20431;-82
2021/11/03 08:57:24;;;;;;;30.50;24.52;;;6.00;82.70;;;;;;4955597;28;20058;-82
2021/11/03 08:59:54;;;;;;;31.35;25.15;;;6.00;82.80;;;;;;4970137;28;20494;-82
2021/11/03 09:02:23;;;;;;;33.75;26.27;;;6.10;82.80;;;;;;4958481;28;20050;-82
2021/11/03 09:04:51;;;;;;;34.30;26.25;;;6.10;82.90;;;;;;4959113;28;20142;-83
2021/11/03 09:07:18;;;;;;;38.85;27.83;;;6.10;82.90;;;;;;4959084;28;20047;-82
2021/11/03 09:09:46;;;;;;;35.40;26.58;;;6.20;83.00;;;;;;4958588;28;20054;-83
2021/11/03 09:12:15;;;;;;;35.33;27.25;;;6.20;83.00;;;;;;4956318;28;20043;-82
2021/11/03 09:14:42;;;;;;;37.33;27.55;;;6.20;83.10;;;;;;4958422;28;20047;-82
2021/11/03 09:17:10;;;;;;;37.05;28.15;;;6.20;83.10;;;;;;4958234;28;20058;-82
2021/11/03 09:19:38;;;;;;;39.70;28.33;;;6.30;83.10;;;;;;4960540;28;20120;-82
2021/11/03 09:22:06;;;;;;;39.35;28.77;;;6.30;83.20;;;;;;4958777;28;20562;-82
2021/11/03 09:24:35;;;;;;;41.47;29.63;;;6.30;83.20;;;;;;4955235;28;20070;-82
2021/11/03 09:27:12;;;;;;;36.88;27.88;;;6.40;83.20;;;;;;4956808;28;20054;-82
2021/11/03 09:29:48;;;;;;;38.92;28.70;;;6.40;83.30;;;;;;4958849;28;20245;-82
2021/11/03 09:32:21;;;;;;;37.42;28.70;;;6.40;83.30;;;;;;4957959;28;20055;-82
2021/11/03 09:34:50;;;;;;;37.53;28.43;;;6.40;83.30;;;;;;4958842;28;20062;-82
2021/11/03 09:37:21;;;;;;;41.08;29.80;;;6.50;83.30;;;;;;4958738;28;20460;-82
2021/11/03 09:39:49;;;;;;;48.00;32.15;;;6.50;83.30;;;;;;4956697;28;20082;-81
2021/11/03 09:42:18;;;;;;;41.45;31.40;;;6.50;83.40;;;;;;4955296;28;20691;-82
2021/11/03 09:44:48;;;;;;;43.17;30.92;;;6.60;83.40;;;;;;4958260;28;20106;-82
2021/11/03 09:47:24;;;;;;;41.38;29.02;;;6.60;83.50;;;;;;4958042;28;20059;-82
2021/11/03 09:50:28;;;;;;;42.70;30.40;;;6.70;83.50;;;;;;4958364;28;20416;-82
2021/11/03 09:53:01;;;;;;;50.95;33.10;;;6.70;83.50;;;;;;4956932;28;20110;-83
2021/11/03 09:55:31;;;;;;;39.20;30.55;;;6.80;83.50;;;;;;4968177;28;20050;-83
2021/11/03 09:58:07;;;;;;;42.58;31.77;;;6.80;83.60;;;;;;4971139;28;20043;-83
2021/11/03 10:00:48;;;;;;;45.08;32.25;;;6.90;83.60;;;;;;4956483;28;20101;-83
2021/11/03 10:03:29;;;;;;;44.88;32.20;;;6.90;83.70;;;;;;4955165;28;20132;-83
2021/11/03 10:06:13;;;;;;;47.67;33.65;;;7.00;83.70;;;;;;4969874;28;20042;-83
2021/11/03 10:08:47;;;;;;;45.70;33.47;;;7.10;83.80;;;;;;4971380;28;20073;-83
2021/11/03 10:11:24;;;;;;;46.83;32.60;;;7.20;83.80;;;;;;4959145;28;20527;-83
2021/11/03 10:13:58;;;;;;;45.15;31.60;;;7.30;83.80;;;;;;4961626;28;20487;-83
2021/11/03 10:16:41;;;;;;;47.78;32.15;;;7.40;83.90;;;;;;4957986;28;20062;-82
2021/11/03 10:19:14;;;;;;;48.35;32.45;;;7.50;83.90;;;;;;4958044;28;20043;-82
2021/11/03 10:21:46;;;;;;;44.33;31.85;;;7.70;83.90;;;;;;4968912;28;20047;-83
2021/11/03 10:24:13;;;;;;;47.85;32.80;;;7.90;83.90;;;;;;4955404;28;20051;-83
2021/11/03 10:26:53;;;;;;;41.67;29.92;;;7.90;83.90;;;;;;4960158;28;20058;-83
2021/11/03 10:29:40;;;;;;;41.38;30.42;;;8.10;83.90;;;;;;4961667;28;20397;-83
2021/11/03 10:32:07;;;;;;;46.22;29.70;;;8.40;83.80;;;;;;4961471;28;20051;-83
2021/11/03 10:34:34;;;;;;;38.17;28.10;;;8.50;83.70;;;;;;4961866;28;20050;-83
2021/11/03 10:37:16;;;;;;;36.97;26.10;;;8.70;83.60;;;;;;4963409;28;20046;-84
2021/11/03 10:39:59;;;;;;;35.97;26.40;;;8.90;83.50;;;;;;4960814;28;20050;-84
2021/11/03 10:42:31;;;;;;;38.63;24.95;;;9.00;83.30;;;;;;4957583;28;20061;-84
2021/11/03 10:45:19;;;;;;;32.67;24.42;;;9.30;83.20;;;;;;4972303;28;20054;-83
2021/11/03 10:47:53;;;;;;;32.17;23.55;;;9.40;83.00;;;;;;4961687;28;20472;-83
2021/11/03 10:50:30;;;;;;;29.58;22.15;;;9.60;82.80;;;;;;4973948;28;20046;-83
2021/11/03 10:53:01;;;;;;;29.83;20.77;;;9.80;82.60;;;;;;4967249;28;20051;-83
2021/11/03 10:55:42;;;;;;;26.50;19.52;;;9.90;82.40;;;;;;4968479;28;20044;-83
2021/11/03 10:58:11;;;;;;;24.52;18.50;;;10.00;82.20;;;;;;4961257;28;20046;-83
2021/11/03 11:00:44;;;;;;;24.45;17.85;;;10.20;82.00;;;;;;4958690;28;20047;-83
2021/11/03 11:03:19;;;;;;;26.27;15.25;;;10.30;81.80;;;;;;4959466;28;20047;-83
2021/11/03 11:05:52;;;;;;;20.77;14.77;;;10.40;81.60;;;;;;4961442;28;20098;-83
2021/11/03 11:08:26;;;;;;;24.58;13.75;;;10.50;81.30;;;;;;4961352;28;20058;-83
2021/11/03 11:11:08;;;;;;;16.17;10.25;;;10.60;81.20;;;;;;4962740;28;20051;-83
2021/11/03 11:13:40;;;;;;;15.00;10.27;;;10.70;80.90;;;;;;4960485;28;20126;-83
2021/11/03 11:16:12;;;;;;;14.77;10.32;;;10.80;80.80;;;;;;4961067;28;20062;-82
2021/11/03 11:19:01;;;;;;;12.68;8.80;;;10.80;80.50;;;;;;4958701;28;20047;-83
2021/11/03 11:21:38;;;;;;;17.30;9.50;;;10.90;80.30;;;;;;4956883;28;20105;-83
2021/11/03 11:24:34;;;;;;;16.83;9.23;;;11.00;80.10;;;;;;4959378;28;20052;-83
2021/11/03 11:27:20;;;;;;;15.27;9.75;;;11.00;79.90;;;;;;4971040;28;20059;-84
2021/11/03 11:30:12;;;;;;;16.20;9.82;;;11.00;79.70;;;;;;4960810;28;20098;-84
2021/11/03 11:33:20;;;;;;;12.40;8.43;;;11.10;79.40;;;;;;4974036;28;20458;-84
2021/11/03 11:36:02;;;;;;;13.70;9.50;;;11.20;79.20;;;;;;4969158;28;20050;-84
2021/11/03 11:38:53;;;;;;;12.60;8.75;;;11.20;79.10;;;;;;4960877;28;20059;-84
2021/11/03 11:41:30;;;;;;;15.15;9.02;;;11.20;78.80;;;;;;4961010;28;20051;-85
2021/11/03 11:44:06;;;;;;;14.70;9.77;;;11.30;78.70;;;;;;4961239;28;20043;-86
2021/11/03 11:46:34;;;;;;;13.00;9.18;;;11.30;78.50;;;;;;4949321;28;20051;-84
2021/11/03 11:49:19;;;;;;;15.10;9.32;;;11.40;78.40;;;;;;4967824;28;20047;-85
2021/11/03 11:51:53;;;;;;;11.90;8.57;;;11.40;78.20;;;;;;4972030;28;20062;-85
2021/11/03 11:54:39;;;;;;;11.73;7.90;;;11.40;78.00;;;;;;4967418;28;20123;-85
2021/11/03 11:57:12;;;;;;;13.25;8.07;;;11.50;77.80;;;;;;4971991;28;20047;-85
2021/11/03 12:00:08;;;;;;;11.70;7.13;;;11.50;77.70;;;;;;4959734;28;20121;-85
2021/11/03 12:02:51;;;;;;;10.40;6.95;;;11.50;77.50;;;;;;4959548;28;20586;-85
2021/11/03 12:05:21;;;;;;;9.30;6.65;;;11.60;77.40;;;;;;4960878;28;20087;-85
2021/11/03 12:08:10;;;;;;;9.57;6.78;;;11.60;77.20;;;;;;4960533;28;20131;-85
2021/11/03 12:11:02;;;;;;;10.45;6.47;;;11.70;77.10;;;;;;4959427;28;20055;-85
2021/11/03 12:13:30;;;;;;;10.75;6.10;;;11.70;77.00;;;;;;4959965;28;20039;-86
2021/11/03 12:16:08;;;;;;;10.55;5.78;;;11.80;76.90;;;;;;4959872;28;20085;-86
2021/11/03 12:18:36;;;;;;;8.65;5.03;;;11.80;76.80;;;;;;4957013;28;20055;-86
2021/11/03 12:21:03;;;;;;;9.40;5.60;;;11.90;76.70;;;;;;4958074;28;20051;-86
2021/11/03 12:23:45;;;;;;;8.80;5.60;;;11.90;76.60;;;;;;4961346;28;20134;-85
2021/11/03 12:26:25;;;;;;;9.07;5.07;;;11.90;76.50;;;;;;4959771;28;20083;-85
2021/11/03 12:29:14;;;;;;;7.55;4.50;;;12.00;76.30;;;;;;4959591;28;20416;-85
2021/11/03 12:31:47;;;;;;;8.07;4.90;;;12.10;76.20;;;;;;4963786;28;20504;-85
2021/11/03 12:34:14;;;;;;;11.43;5.00;;;12.10;76.10;;;;;;4970486;28;20078;-86
2021/11/03 12:36:47;;;;;;;7.68;4.38;;;12.20;76.00;;;;;;4956974;28;20054;-86
2021/11/03 12:39:49;;;;;;;8.38;4.60;;;12.20;75.80;;;;;;4956056;28;20058;-86
2021/11/03 12:42:19;;;;;;;8.68;4.43;;;12.20;75.60;;;;;;4970780;28;20050;-86
2021/11/03 12:45:13;;;;;;;7.15;3.97;;;12.30;75.50;;;;;;4972006;28;20455;-86
2021/11/03 12:47:54;;;;;;;8.70;4.32;;;12.40;75.40;;;;;;4972474;28;20532;-86
2021/11/03 12:50:40;;;;;;;8.27;4.30;;;12.40;75.20;;;;;;4970183;28;20158;-86
2021/11/03 12:53:12;;;;;;;6.55;3.85;;;12.40;75.10;;;;;;4966008;28;20047;-86
2021/11/03 12:55:57;;;;;;;7.60;3.70;;;12.50;75.00;;;;;;4964825;28;20048;-86
2021/11/03 12:58:25;;;;;;;;;;;12.50;74.80;;;;;;4971107;28;20163;-87